sensor_id;sensor_type;location;lat;lon;timestamp;P1;durP1;ratioP1;P2;durP2;ratioP2
62696;SDS011;48761;42.680;23.312;2023-08-24T00:01:49;18.33;;;11.45;;
62696;SDS011;48761;42.680;23.312;2023-08-24T00:04:15;16.17;;;11.70;;
62696;SDS011;48761;42.680;23.312;2023-08-24T00:06:41;13.00;;;11.35;;
62696;SDS011;48761;42.680;23.312;2023-08-24T00:09:07;16.55;;;11.85;;
62696;SDS011;48761;42.680;23.312;2023-08-24T00:11:33;17.42;;;12.15;;
62696;SDS011;48761;42.680;23.312;2023-08-24T00:13:59;16.10;;;11.60;;
62696;SDS011;48761;42.680;23.312;2023-08-24T00:16:25;14.82;;;12.05;;
62696;SDS011;48761;42.680;23.312;2023-08-24T00:18:53;19.13;;;11.63;;
62696;SDS011;48761;42.680;23.312;2023-08-24T00:21:19;14.18;;;11.73;;
62696;SDS011;48761;42.680;23.312;2023-08-24T00:23:44;15.07;;;12.00;;
62696;SDS011;48761;42.680;23.312;2023-08-24T00:26:10;17.90;;;12.20;;
62696;SDS011;48761;42.680;23.312;2023-08-24T00:28:36;15.00;;;11.32;;
62696;SDS011;48761;42.680;23.312;2023-08-24T00:31:02;15.23;;;11.90;;
62696;SDS011;48761;42.680;23.312;2023-08-24T00:33:28;19.95;;;12.43;;
62696;SDS011;48761;42.680;23.312;2023-08-24T00:35:58;18.67;;;12.80;;
62696;SDS011;48761;42.680;23.312;2023-08-24T00:38:25;16.58;;;12.30;;
62696;SDS011;48761;42.680;23.312;2023-08-24T00:40:51;15.52;;;11.75;;
62696;SDS011;48761;42.680;23.312;2023-08-24T00:43:17;13.65;;;11.43;;
62696;SDS011;48761;42.680;23.312;2023-08-24T00:45:43;19.25;;;13.00;;
62696;SDS011;48761;42.680;23.312;2023-08-24T00:48:09;16.85;;;12.73;;
62696;SDS011;48761;42.680;23.312;2023-08-24T00:50:35;15.60;;;12.27;;
62696;SDS011;48761;42.680;23.312;2023-08-24T00:53:01;15.60;;;11.95;;
62696;SDS011;48761;42.680;23.312;2023-08-24T00:55:27;15.02;;;11.82;;
62696;SDS011;48761;42.680;23.312;2023-08-24T00:57:53;19.67;;;12.25;;
62696;SDS011;48761;42.680;23.312;2023-08-24T01:00:19;17.27;;;11.82;;
62696;SDS011;48761;42.680;23.312;2023-08-24T01:02:45;13.95;;;12.10;;
62696;SDS011;48761;42.680;23.312;2023-08-24T01:05:11;15.88;;;11.75;;
62696;SDS011;48761;42.680;23.312;2023-08-24T01:07:38;15.02;;;12.23;;
62696;SDS011;48761;42.680;23.312;2023-08-24T01:10:05;20.85;;;15.15;;
62696;SDS011;48761;42.680;23.312;2023-08-24T01:15:25;17.48;;;13.02;;
62696;SDS011;48761;42.680;23.312;2023-08-24T01:18:01;15.25;;;13.13;;
62696;SDS011;48761;42.680;23.312;2023-08-24T01:20:31;17.77;;;13.15;;
62696;SDS011;48761;42.680;23.312;2023-08-24T01:25:37;18.10;;;12.65;;
62696;SDS011;48761;42.680;23.312;2023-08-24T01:28:11;17.48;;;13.70;;
62696;SDS011;48761;42.680;23.312;2023-08-24T01:30:39;18.23;;;13.43;;
62696;SDS011;48761;42.680;23.312;2023-08-24T01:33:05;19.45;;;13.77;;
62696;SDS011;48761;42.680;23.312;2023-08-24T01:35:31;18.10;;;13.00;;
62696;SDS011;48761;42.680;23.312;2023-08-24T01:37:57;18.52;;;13.77;;
62696;SDS011;48761;42.680;23.312;2023-08-24T01:40:25;18.85;;;13.95;;
62696;SDS011;48761;42.680;23.312;2023-08-24T01:42:58;20.33;;;14.00;;
62696;SDS011;48761;42.680;23.312;2023-08-24T01:45:29;20.38;;;14.07;;
62696;SDS011;48761;42.680;23.312;2023-08-24T01:47:56;18.13;;;14.48;;
62696;SDS011;48761;42.680;23.312;2023-08-24T01:50:28;17.20;;;13.60;;
62696;SDS011;48761;42.680;23.312;2023-08-24T01:52:55;17.35;;;13.40;;
62696;SDS011;48761;42.680;23.312;2023-08-24T01:55:21;17.58;;;13.65;;
62696;SDS011;48761;42.680;23.312;2023-08-24T01:57:49;18.90;;;13.93;;
62696;SDS011;48761;42.680;23.312;2023-08-24T02:00:15;17.17;;;14.57;;
62696;SDS011;48761;42.680;23.312;2023-08-24T02:02:42;17.30;;;13.98;;
62696;SDS011;48761;42.680;23.312;2023-08-24T02:05:09;17.63;;;13.60;;
62696;SDS011;48761;42.680;23.312;2023-08-24T02:07:35;22.38;;;13.95;;
62696;SDS011;48761;42.680;23.312;2023-08-24T02:10:01;17.10;;;13.63;;
62696;SDS011;48761;42.680;23.312;2023-08-24T02:12:28;18.10;;;14.15;;
62696;SDS011;48761;42.680;23.312;2023-08-24T02:14:53;17.33;;;13.57;;
62696;SDS011;48761;42.680;23.312;2023-08-24T02:17:19;19.13;;;13.27;;
62696;SDS011;48761;42.680;23.312;2023-08-24T02:19:45;16.67;;;12.73;;
62696;SDS011;48761;42.680;23.312;2023-08-24T02:22:11;19.00;;;13.98;;
62696;SDS011;48761;42.680;23.312;2023-08-24T02:24:37;18.10;;;13.18;;
62696;SDS011;48761;42.680;23.312;2023-08-24T02:27:03;16.00;;;13.52;;
62696;SDS011;48761;42.680;23.312;2023-08-24T02:29:29;17.83;;;13.02;;
62696;SDS011;48761;42.680;23.312;2023-08-24T02:31:55;16.83;;;12.82;;
62696;SDS011;48761;42.680;23.312;2023-08-24T02:34:23;16.02;;;13.20;;
62696;SDS011;48761;42.680;23.312;2023-08-24T02:36:49;16.63;;;13.10;;
62696;SDS011;48761;42.680;23.312;2023-08-24T02:39:14;16.95;;;12.80;;
62696;SDS011;48761;42.680;23.312;2023-08-24T02:41:40;17.48;;;13.43;;
62696;SDS011;48761;42.680;23.312;2023-08-24T02:44:06;18.23;;;13.05;;
62696;SDS011;48761;42.680;23.312;2023-08-24T02:46:32;19.92;;;14.48;;
62696;SDS011;48761;42.680;23.312;2023-08-24T02:48:58;20.55;;;14.52;;
62696;SDS011;48761;42.680;23.312;2023-08-24T02:51:24;19.40;;;14.35;;
62696;SDS011;48761;42.680;23.312;2023-08-24T02:53:50;17.67;;;14.38;;
62696;SDS011;48761;42.680;23.312;2023-08-24T02:56:16;18.17;;;13.68;;
62696;SDS011;48761;42.680;23.312;2023-08-24T02:58:42;22.02;;;14.40;;
62696;SDS011;48761;42.680;23.312;2023-08-24T03:01:08;17.88;;;14.68;;
62696;SDS011;48761;42.680;23.312;2023-08-24T03:03:34;19.05;;;13.52;;
62696;SDS011;48761;42.680;23.312;2023-08-24T03:06:02;15.00;;;13.30;;
62696;SDS011;48761;42.680;23.312;2023-08-24T03:08:29;19.55;;;13.70;;
62696;SDS011;48761;42.680;23.312;2023-08-24T03:10:56;17.83;;;13.77;;
62696;SDS011;48761;42.680;23.312;2023-08-24T03:13:23;23.63;;;14.52;;
62696;SDS011;48761;42.680;23.312;2023-08-24T03:15:49;17.67;;;13.50;;
62696;SDS011;48761;42.680;23.312;2023-08-24T03:18:15;20.85;;;14.50;;
62696;SDS011;48761;42.680;23.312;2023-08-24T03:20:43;18.05;;;13.68;;
62696;SDS011;48761;42.680;23.312;2023-08-24T03:23:10;20.00;;;14.45;;
62696;SDS011;48761;42.680;23.312;2023-08-24T03:25:37;18.48;;;14.23;;
62696;SDS011;48761;42.680;23.312;2023-08-24T03:28:04;15.88;;;13.20;;
62696;SDS011;48761;42.680;23.312;2023-08-24T03:30:30;19.13;;;14.20;;
62696;SDS011;48761;42.680;23.312;2023-08-24T03:32:56;21.05;;;13.48;;
62696;SDS011;48761;42.680;23.312;2023-08-24T03:35:22;20.30;;;14.38;;
62696;SDS011;48761;42.680;23.312;2023-08-24T03:37:48;17.05;;;13.07;;
62696;SDS011;48761;42.680;23.312;2023-08-24T03:40:14;17.65;;;13.88;;
62696;SDS011;48761;42.680;23.312;2023-08-24T03:42:40;18.15;;;14.57;;
62696;SDS011;48761;42.680;23.312;2023-08-24T03:45:06;20.55;;;14.70;;
62696;SDS011;48761;42.680;23.312;2023-08-24T03:47:32;16.88;;;13.93;;
62696;SDS011;48761;42.680;23.312;2023-08-24T03:49:58;18.70;;;14.15;;
62696;SDS011;48761;42.680;23.312;2023-08-24T03:52:23;25.38;;;15.50;;
62696;SDS011;48761;42.680;23.312;2023-08-24T03:54:49;22.63;;;16.05;;
62696;SDS011;48761;42.680;23.312;2023-08-24T03:57:15;21.15;;;15.27;;
62696;SDS011;48761;42.680;23.312;2023-08-24T03:59:41;26.10;;;18.30;;
62696;SDS011;48761;42.680;23.312;2023-08-24T04:02:07;21.05;;;17.48;;
62696;SDS011;48761;42.680;23.312;2023-08-24T04:04:33;23.50;;;16.63;;
62696;SDS011;48761;42.680;23.312;2023-08-24T04:06:59;26.15;;;18.20;;
62696;SDS011;48761;42.680;23.312;2023-08-24T04:09:25;26.02;;;17.85;;
62696;SDS011;48761;42.680;23.312;2023-08-24T04:11:51;23.38;;;16.35;;
62696;SDS011;48761;42.680;23.312;2023-08-24T04:14:17;19.83;;;15.55;;
62696;SDS011;48761;42.680;23.312;2023-08-24T04:16:43;22.65;;;15.20;;
62696;SDS011;48761;42.680;23.312;2023-08-24T04:19:09;20.75;;;15.60;;
62696;SDS011;48761;42.680;23.312;2023-08-24T04:21:35;21.45;;;15.77;;
62696;SDS011;48761;42.680;23.312;2023-08-24T04:24:01;21.17;;;15.85;;
62696;SDS011;48761;42.680;23.312;2023-08-24T04:26:26;23.45;;;16.23;;
62696;SDS011;48761;42.680;23.312;2023-08-24T04:28:52;24.35;;;16.40;;
62696;SDS011;48761;42.680;23.312;2023-08-24T04:31:18;21.95;;;16.83;;
62696;SDS011;48761;42.680;23.312;2023-08-24T04:33:44;27.33;;;18.10;;
62696;SDS011;48761;42.680;23.312;2023-08-24T04:36:10;28.08;;;18.92;;
62696;SDS011;48761;42.680;23.312;2023-08-24T04:38:36;29.05;;;19.33;;
62696;SDS011;48761;42.680;23.312;2023-08-24T04:41:02;38.40;;;21.23;;
62696;SDS011;48761;42.680;23.312;2023-08-24T04:43:28;28.50;;;21.00;;
62696;SDS011;48761;42.680;23.312;2023-08-24T04:45:54;29.90;;;18.65;;
62696;SDS011;48761;42.680;23.312;2023-08-24T04:48:21;26.65;;;19.45;;
62696;SDS011;48761;42.680;23.312;2023-08-24T04:50:47;31.13;;;20.17;;
62696;SDS011;48761;42.680;23.312;2023-08-24T04:53:14;28.85;;;20.55;;
62696;SDS011;48761;42.680;23.312;2023-08-24T04:55:43;36.17;;;20.90;;
62696;SDS011;48761;42.680;23.312;2023-08-24T04:58:10;28.60;;;19.98;;
62696;SDS011;48761;42.680;23.312;2023-08-24T05:00:37;27.10;;;19.30;;
62696;SDS011;48761;42.680;23.312;2023-08-24T05:03:04;28.10;;;18.88;;
62696;SDS011;48761;42.680;23.312;2023-08-24T05:05:31;30.65;;;19.92;;
62696;SDS011;48761;42.680;23.312;2023-08-24T05:07:59;35.42;;;20.92;;
62696;SDS011;48761;42.680;23.312;2023-08-24T05:10:29;28.75;;;20.13;;
62696;SDS011;48761;42.680;23.312;2023-08-24T05:12:56;27.48;;;21.08;;
62696;SDS011;48761;42.680;23.312;2023-08-24T05:15:22;33.97;;;22.25;;
62696;SDS011;48761;42.680;23.312;2023-08-24T05:17:48;30.80;;;22.05;;
62696;SDS011;48761;42.680;23.312;2023-08-24T05:20:14;34.38;;;21.70;;
62696;SDS011;48761;42.680;23.312;2023-08-24T05:22:40;33.55;;;21.60;;
62696;SDS011;48761;42.680;23.312;2023-08-24T05:25:06;29.85;;;21.80;;
62696;SDS011;48761;42.680;23.312;2023-08-24T05:27:32;28.98;;;19.67;;
62696;SDS011;48761;42.680;23.312;2023-08-24T05:29:58;28.50;;;19.65;;
62696;SDS011;48761;42.680;23.312;2023-08-24T05:32:24;27.25;;;19.83;;
62696;SDS011;48761;42.680;23.312;2023-08-24T05:34:50;27.63;;;19.92;;
62696;SDS011;48761;42.680;23.312;2023-08-24T05:37:16;26.45;;;19.65;;
62696;SDS011;48761;42.680;23.312;2023-08-24T05:39:42;26.73;;;19.80;;
62696;SDS011;48761;42.680;23.312;2023-08-24T05:42:08;27.52;;;20.92;;
62696;SDS011;48761;42.680;23.312;2023-08-24T05:44:34;32.83;;;19.50;;
62696;SDS011;48761;42.680;23.312;2023-08-24T05:47:00;31.13;;;23.42;;
62696;SDS011;48761;42.680;23.312;2023-08-24T05:49:26;28.00;;;20.42;;
62696;SDS011;48761;42.680;23.312;2023-08-24T05:51:52;30.75;;;19.30;;
62696;SDS011;48761;42.680;23.312;2023-08-24T05:54:18;31.40;;;20.92;;
62696;SDS011;48761;42.680;23.312;2023-08-24T05:56:47;42.47;;;28.33;;
62696;SDS011;48761;42.680;23.312;2023-08-24T05:59:14;39.78;;;23.20;;
62696;SDS011;48761;42.680;23.312;2023-08-24T06:01:40;32.75;;;19.27;;
62696;SDS011;48761;42.680;23.312;2023-08-24T06:04:07;29.33;;;20.20;;
62696;SDS011;48761;42.680;23.312;2023-08-24T06:06:34;30.25;;;19.55;;
62696;SDS011;48761;42.680;23.312;2023-08-24T06:09:01;30.02;;;18.35;;
62696;SDS011;48761;42.680;23.312;2023-08-24T06:11:27;28.75;;;18.27;;
62696;SDS011;48761;42.680;23.312;2023-08-24T06:13:53;31.70;;;17.58;;
62696;SDS011;48761;42.680;23.312;2023-08-24T06:16:19;24.90;;;15.73;;
62696;SDS011;48761;42.680;23.312;2023-08-24T06:18:45;23.75;;;14.57;;
62696;SDS011;48761;42.680;23.312;2023-08-24T06:21:11;22.95;;;15.55;;
62696;SDS011;48761;42.680;23.312;2023-08-24T06:23:40;24.75;;;16.92;;
62696;SDS011;48761;42.680;23.312;2023-08-24T06:26:06;22.15;;;15.98;;
62696;SDS011;48761;42.680;23.312;2023-08-24T06:28:32;21.50;;;16.42;;
62696;SDS011;48761;42.680;23.312;2023-08-24T06:30:59;23.58;;;17.27;;
62696;SDS011;48761;42.680;23.312;2023-08-24T06:33:29;26.98;;;17.92;;
62696;SDS011;48761;42.680;23.312;2023-08-24T06:36:04;30.00;;;17.83;;
62696;SDS011;48761;42.680;23.312;2023-08-24T06:38:31;22.60;;;17.33;;
62696;SDS011;48761;42.680;23.312;2023-08-24T06:40:57;27.17;;;16.30;;
62696;SDS011;48761;42.680;23.312;2023-08-24T06:43:24;26.38;;;16.02;;
62696;SDS011;48761;42.680;23.312;2023-08-24T06:45:51;20.05;;;16.60;;
62696;SDS011;48761;42.680;23.312;2023-08-24T06:48:18;28.05;;;16.63;;
62696;SDS011;48761;42.680;23.312;2023-08-24T06:50:44;22.25;;;16.08;;
62696;SDS011;48761;42.680;23.312;2023-08-24T06:53:10;31.23;;;16.17;;
62696;SDS011;48761;42.680;23.312;2023-08-24T06:55:36;26.83;;;16.77;;
62696;SDS011;48761;42.680;23.312;2023-08-24T06:58:02;25.13;;;16.55;;
62696;SDS011;48761;42.680;23.312;2023-08-24T07:00:28;26.92;;;18.75;;
62696;SDS011;48761;42.680;23.312;2023-08-24T07:02:57;25.48;;;16.05;;
62696;SDS011;48761;42.680;23.312;2023-08-24T07:05:25;28.67;;;15.23;;
62696;SDS011;48761;42.680;23.312;2023-08-24T07:07:54;25.77;;;17.97;;
62696;SDS011;48761;42.680;23.312;2023-08-24T07:10:20;25.05;;;14.82;;
62696;SDS011;48761;42.680;23.312;2023-08-24T07:12:47;29.55;;;15.52;;
62696;SDS011;48761;42.680;23.312;2023-08-24T07:21:34;22.33;;;15.85;;
62696;SDS011;48761;42.680;23.312;2023-08-24T07:24:35;31.20;;;18.70;;
62696;SDS011;48761;42.680;23.312;2023-08-24T07:27:01;24.08;;;16.90;;
62696;SDS011;48761;42.680;23.312;2023-08-24T07:29:31;25.15;;;14.98;;
62696;SDS011;48761;42.680;23.312;2023-08-24T07:34:48;29.30;;;16.33;;
62696;SDS011;48761;42.680;23.312;2023-08-24T07:37:14;25.70;;;16.05;;
62696;SDS011;48761;42.680;23.312;2023-08-24T07:39:40;24.23;;;14.60;;
62696;SDS011;48761;42.680;23.312;2023-08-24T07:42:06;25.77;;;15.40;;
62696;SDS011;48761;42.680;23.312;2023-08-24T07:44:32;26.38;;;14.93;;
62696;SDS011;48761;42.680;23.312;2023-08-24T07:47:20;20.85;;;14.90;;
62696;SDS011;48761;42.680;23.312;2023-08-24T07:50:09;20.85;;;15.70;;
62696;SDS011;48761;42.680;23.312;2023-08-24T07:52:45;22.63;;;14.80;;
62696;SDS011;48761;42.680;23.312;2023-08-24T07:55:13;18.10;;;14.35;;
62696;SDS011;48761;42.680;23.312;2023-08-24T07:57:39;23.38;;;14.50;;
62696;SDS011;48761;42.680;23.312;2023-08-24T08:00:05;21.15;;;15.00;;
62696;SDS011;48761;42.680;23.312;2023-08-24T08:02:32;21.20;;;15.40;;
62696;SDS011;48761;42.680;23.312;2023-08-24T08:05:03;28.03;;;17.90;;
62696;SDS011;48761;42.680;23.312;2023-08-24T08:07:29;21.95;;;14.23;;
62696;SDS011;48761;42.680;23.312;2023-08-24T08:12:46;20.80;;;14.30;;
62696;SDS011;48761;42.680;23.312;2023-08-24T08:15:12;24.63;;;14.73;;
62696;SDS011;48761;42.680;23.312;2023-08-24T08:17:42;20.48;;;14.52;;
62696;SDS011;48761;42.680;23.312;2023-08-24T08:20:13;22.92;;;14.70;;
62696;SDS011;48761;42.680;23.312;2023-08-24T08:22:51;21.20;;;14.48;;
62696;SDS011;48761;42.680;23.312;2023-08-24T08:25:18;21.77;;;14.82;;
62696;SDS011;48761;42.680;23.312;2023-08-24T08:27:46;18.90;;;14.05;;
62696;SDS011;48761;42.680;23.312;2023-08-24T08:30:26;20.67;;;14.65;;
62696;SDS011;48761;42.680;23.312;2023-08-24T08:32:53;18.73;;;13.38;;
62696;SDS011;48761;42.680;23.312;2023-08-24T08:35:26;18.48;;;14.95;;
62696;SDS011;48761;42.680;23.312;2023-08-24T08:37:55;20.35;;;15.07;;
62696;SDS011;48761;42.680;23.312;2023-08-24T08:43:57;20.20;;;14.18;;
62696;SDS011;48761;42.680;23.312;2023-08-24T08:46:33;25.10;;;14.30;;
62696;SDS011;48761;42.680;23.312;2023-08-24T08:49:12;20.60;;;13.05;;
62696;SDS011;48761;42.680;23.312;2023-08-24T08:51:42;18.27;;;13.07;;
62696;SDS011;48761;42.680;23.312;2023-08-24T08:54:11;17.00;;;12.65;;
62696;SDS011;48761;42.680;23.312;2023-08-24T08:56:40;20.77;;;12.68;;
62696;SDS011;48761;42.680;23.312;2023-08-24T08:59:15;18.25;;;13.40;;
62696;SDS011;48761;42.680;23.312;2023-08-24T09:02:14;18.02;;;12.75;;
62696;SDS011;48761;42.680;23.312;2023-08-24T09:07:21;23.08;;;14.60;;
62696;SDS011;48761;42.680;23.312;2023-08-24T09:09:54;24.90;;;14.50;;
62696;SDS011;48761;42.680;23.312;2023-08-24T09:15:49;15.82;;;12.75;;
62696;SDS011;48761;42.680;23.312;2023-08-24T09:18:48;15.95;;;13.57;;
62696;SDS011;48761;42.680;23.312;2023-08-24T09:21:17;18.92;;;14.00;;
62696;SDS011;48761;42.680;23.312;2023-08-24T09:23:44;18.48;;;13.65;;
62696;SDS011;48761;42.680;23.312;2023-08-24T09:26:33;18.65;;;13.18;;
62696;SDS011;48761;42.680;23.312;2023-08-24T09:32:13;19.35;;;13.40;;
62696;SDS011;48761;42.680;23.312;2023-08-24T09:34:58;16.60;;;13.80;;
62696;SDS011;48761;42.680;23.312;2023-08-24T09:41:53;19.67;;;14.13;;
62696;SDS011;48761;42.680;23.312;2023-08-24T09:44:30;17.25;;;13.30;;
62696;SDS011;48761;42.680;23.312;2023-08-24T09:50:10;17.38;;;13.45;;
62696;SDS011;48761;42.680;23.312;2023-08-24T09:59:14;19.20;;;13.25;;
62696;SDS011;48761;42.680;23.312;2023-08-24T10:02:10;19.73;;;14.15;;
62696;SDS011;48761;42.680;23.312;2023-08-24T10:04:48;17.95;;;14.05;;
62696;SDS011;48761;42.680;23.312;2023-08-24T10:10:35;16.58;;;13.10;;
62696;SDS011;48761;42.680;23.312;2023-08-24T10:13:20;16.52;;;13.00;;
62696;SDS011;48761;42.680;23.312;2023-08-24T10:16:12;18.83;;;13.20;;
62696;SDS011;48761;42.680;23.312;2023-08-24T10:18:39;20.58;;;13.68;;
62696;SDS011;48761;42.680;23.312;2023-08-24T10:21:31;15.85;;;11.98;;
62696;SDS011;48761;42.680;23.312;2023-08-24T10:23:59;15.52;;;12.35;;
62696;SDS011;48761;42.680;23.312;2023-08-24T10:26:27;19.55;;;13.43;;
62696;SDS011;48761;42.680;23.312;2023-08-24T10:28:54;15.98;;;11.98;;
62696;SDS011;48761;42.680;23.312;2023-08-24T10:31:22;17.98;;;12.40;;
62696;SDS011;48761;42.680;23.312;2023-08-24T10:33:48;16.45;;;12.25;;
62696;SDS011;48761;42.680;23.312;2023-08-24T10:36:15;18.80;;;13.15;;
62696;SDS011;48761;42.680;23.312;2023-08-24T10:38:42;15.00;;;11.95;;
62696;SDS011;48761;42.680;23.312;2023-08-24T10:41:14;14.10;;;11.07;;
62696;SDS011;48761;42.680;23.312;2023-08-24T10:43:52;19.88;;;11.13;;
62696;SDS011;48761;42.680;23.312;2023-08-24T10:46:29;12.75;;;10.43;;
62696;SDS011;48761;42.680;23.312;2023-08-24T10:49:03;16.05;;;11.48;;
62696;SDS011;48761;42.680;23.312;2023-08-24T10:51:30;13.20;;;11.13;;
62696;SDS011;48761;42.680;23.312;2023-08-24T10:53:57;15.95;;;11.57;;
62696;SDS011;48761;42.680;23.312;2023-08-24T10:56:29;14.32;;;11.38;;
62696;SDS011;48761;42.680;23.312;2023-08-24T11:01:38;18.50;;;11.88;;
62696;SDS011;48761;42.680;23.312;2023-08-24T11:04:08;21.02;;;11.98;;
62696;SDS011;48761;42.680;23.312;2023-08-24T11:06:50;19.67;;;11.93;;
62696;SDS011;48761;42.680;23.312;2023-08-24T11:09:23;16.35;;;11.90;;
62696;SDS011;48761;42.680;23.312;2023-08-24T11:14:57;11.70;;;10.15;;
62696;SDS011;48761;42.680;23.312;2023-08-24T11:17:23;16.08;;;11.00;;
62696;SDS011;48761;42.680;23.312;2023-08-24T11:19:49;17.13;;;11.02;;
62696;SDS011;48761;42.680;23.312;2023-08-24T11:22:17;19.85;;;11.73;;
62696;SDS011;48761;42.680;23.312;2023-08-24T11:24:43;18.98;;;12.50;;
62696;SDS011;48761;42.680;23.312;2023-08-24T11:27:10;12.45;;;11.15;;
62696;SDS011;48761;42.680;23.312;2023-08-24T11:29:38;16.58;;;12.23;;
62696;SDS011;48761;42.680;23.312;2023-08-24T11:32:04;17.38;;;11.80;;
62696;SDS011;48761;42.680;23.312;2023-08-24T11:34:30;15.77;;;10.77;;
62696;SDS011;48761;42.680;23.312;2023-08-24T11:36:59;16.50;;;10.82;;
62696;SDS011;48761;42.680;23.312;2023-08-24T11:39:25;14.48;;;10.82;;
62696;SDS011;48761;42.680;23.312;2023-08-24T11:41:57;16.05;;;11.85;;
62696;SDS011;48761;42.680;23.312;2023-08-24T11:44:46;13.60;;;10.65;;
62696;SDS011;48761;42.680;23.312;2023-08-24T11:47:16;15.75;;;11.05;;
62696;SDS011;48761;42.680;23.312;2023-08-24T11:49:45;19.17;;;11.75;;
62696;SDS011;48761;42.680;23.312;2023-08-24T11:52:12;16.83;;;10.43;;
62696;SDS011;48761;42.680;23.312;2023-08-24T11:54:41;13.40;;;10.98;;
62696;SDS011;48761;42.680;23.312;2023-08-24T11:57:18;16.02;;;11.13;;
62696;SDS011;48761;42.680;23.312;2023-08-24T12:02:26;20.20;;;13.27;;
62696;SDS011;48761;42.680;23.312;2023-08-24T12:05:05;13.68;;;10.90;;
62696;SDS011;48761;42.680;23.312;2023-08-24T12:08:18;14.95;;;10.77;;
62696;SDS011;48761;42.680;23.312;2023-08-24T12:11:09;13.25;;;9.82;;
62696;SDS011;48761;42.680;23.312;2023-08-24T12:13:50;14.00;;;10.75;;
62696;SDS011;48761;42.680;23.312;2023-08-24T12:16:18;13.75;;;11.32;;
62696;SDS011;48761;42.680;23.312;2023-08-24T12:18:53;18.67;;;10.32;;
62696;SDS011;48761;42.680;23.312;2023-08-24T12:21:22;12.93;;;9.88;;
62696;SDS011;48761;42.680;23.312;2023-08-24T12:23:55;18.17;;;10.93;;
62696;SDS011;48761;42.680;23.312;2023-08-24T12:26:22;13.13;;;10.27;;
62696;SDS011;48761;42.680;23.312;2023-08-24T12:28:51;14.82;;;9.95;;
62696;SDS011;48761;42.680;23.312;2023-08-24T12:31:17;15.25;;;10.55;;
62696;SDS011;48761;42.680;23.312;2023-08-24T12:33:44;15.57;;;10.30;;
62696;SDS011;48761;42.680;23.312;2023-08-24T12:36:10;19.02;;;10.65;;
62696;SDS011;48761;42.680;23.312;2023-08-24T12:38:36;12.98;;;10.48;;
62696;SDS011;48761;42.680;23.312;2023-08-24T12:41:02;13.52;;;10.10;;
62696;SDS011;48761;42.680;23.312;2023-08-24T12:43:40;12.75;;;10.43;;
62696;SDS011;48761;42.680;23.312;2023-08-24T12:46:08;16.17;;;10.55;;
62696;SDS011;48761;42.680;23.312;2023-08-24T12:48:37;12.93;;;10.25;;
62696;SDS011;48761;42.680;23.312;2023-08-24T12:51:03;12.80;;;10.40;;
62696;SDS011;48761;42.680;23.312;2023-08-24T12:53:29;16.15;;;10.75;;
62696;SDS011;48761;42.680;23.312;2023-08-24T12:55:58;13.93;;;10.52;;
62696;SDS011;48761;42.680;23.312;2023-08-24T12:58:23;13.18;;;10.68;;
62696;SDS011;48761;42.680;23.312;2023-08-24T13:00:49;11.25;;;10.02;;
62696;SDS011;48761;42.680;23.312;2023-08-24T13:03:15;17.48;;;11.20;;
62696;SDS011;48761;42.680;23.312;2023-08-24T13:05:51;20.20;;;16.55;;
62696;SDS011;48761;42.680;23.312;2023-08-24T13:08:21;16.83;;;12.25;;
62696;SDS011;48761;42.680;23.312;2023-08-24T13:10:47;18.70;;;12.55;;
62696;SDS011;48761;42.680;23.312;2023-08-24T13:13:12;20.67;;;12.85;;
62696;SDS011;48761;42.680;23.312;2023-08-24T13:15:39;17.08;;;11.90;;
62696;SDS011;48761;42.680;23.312;2023-08-24T13:18:05;17.00;;;10.85;;
62696;SDS011;48761;42.680;23.312;2023-08-24T13:20:31;16.15;;;10.95;;
62696;SDS011;48761;42.680;23.312;2023-08-24T13:22:57;17.17;;;11.38;;
62696;SDS011;48761;42.680;23.312;2023-08-24T13:25:23;13.80;;;10.45;;
62696;SDS011;48761;42.680;23.312;2023-08-24T13:27:51;15.30;;;10.88;;
62696;SDS011;48761;42.680;23.312;2023-08-24T13:30:25;20.05;;;11.95;;
62696;SDS011;48761;42.680;23.312;2023-08-24T13:33:14;14.98;;;10.88;;
62696;SDS011;48761;42.680;23.312;2023-08-24T13:36:03;15.05;;;11.52;;
62696;SDS011;48761;42.680;23.312;2023-08-24T13:38:37;22.92;;;11.15;;
62696;SDS011;48761;42.680;23.312;2023-08-24T13:41:03;17.38;;;11.32;;
62696;SDS011;48761;42.680;23.312;2023-08-24T13:43:29;18.45;;;12.52;;
62696;SDS011;48761;42.680;23.312;2023-08-24T13:45:55;21.58;;;12.63;;
62696;SDS011;48761;42.680;23.312;2023-08-24T13:48:21;15.60;;;12.02;;
62696;SDS011;48761;42.680;23.312;2023-08-24T13:50:51;15.55;;;11.82;;
62696;SDS011;48761;42.680;23.312;2023-08-24T13:53:21;20.02;;;11.85;;
62696;SDS011;48761;42.680;23.312;2023-08-24T13:55:56;21.02;;;12.30;;
62696;SDS011;48761;42.680;23.312;2023-08-24T13:58:36;20.90;;;11.75;;
62696;SDS011;48761;42.680;23.312;2023-08-24T14:01:03;16.67;;;11.80;;
62696;SDS011;48761;42.680;23.312;2023-08-24T14:03:29;16.98;;;11.70;;
62696;SDS011;48761;42.680;23.312;2023-08-24T14:05:57;18.25;;;11.85;;
62696;SDS011;48761;42.680;23.312;2023-08-24T14:11:47;16.15;;;11.95;;
62696;SDS011;48761;42.680;23.312;2023-08-24T14:14:43;19.95;;;12.55;;
62696;SDS011;48761;42.680;23.312;2023-08-24T14:17:27;20.05;;;12.38;;
62696;SDS011;48761;42.680;23.312;2023-08-24T14:20:13;20.55;;;12.68;;
62696;SDS011;48761;42.680;23.312;2023-08-24T14:25:58;18.70;;;13.07;;
62696;SDS011;48761;42.680;23.312;2023-08-24T14:28:56;22.55;;;12.73;;
62696;SDS011;48761;42.680;23.312;2023-08-24T14:31:27;18.80;;;12.23;;
62696;SDS011;48761;42.680;23.312;2023-08-24T14:34:19;22.50;;;13.93;;
62696;SDS011;48761;42.680;23.312;2023-08-24T14:43:50;19.13;;;12.35;;
62696;SDS011;48761;42.680;23.312;2023-08-24T14:46:21;14.77;;;11.75;;
62696;SDS011;48761;42.680;23.312;2023-08-24T14:48:48;14.40;;;11.80;;
62696;SDS011;48761;42.680;23.312;2023-08-24T14:51:14;16.80;;;11.75;;
62696;SDS011;48761;42.680;23.312;2023-08-24T14:53:40;15.07;;;11.07;;
62696;SDS011;48761;42.680;23.312;2023-08-24T14:56:06;17.17;;;11.10;;
62696;SDS011;48761;42.680;23.312;2023-08-24T14:58:32;15.35;;;11.10;;
62696;SDS011;48761;42.680;23.312;2023-08-24T15:00:58;17.42;;;11.48;;
62696;SDS011;48761;42.680;23.312;2023-08-24T15:03:24;19.13;;;11.82;;
62696;SDS011;48761;42.680;23.312;2023-08-24T15:05:57;16.65;;;11.25;;
62696;SDS011;48761;42.680;23.312;2023-08-24T15:08:29;17.88;;;11.38;;
62696;SDS011;48761;42.680;23.312;2023-08-24T15:10:57;11.30;;;9.85;;
62696;SDS011;48761;42.680;23.312;2023-08-24T15:13:24;13.15;;;10.10;;
62696;SDS011;48761;42.680;23.312;2023-08-24T15:15:54;12.93;;;10.20;;
62696;SDS011;48761;42.680;23.312;2023-08-24T15:18:21;19.50;;;13.57;;
62696;SDS011;48761;42.680;23.312;2023-08-24T15:20:48;14.70;;;10.35;;
62696;SDS011;48761;42.680;23.312;2023-08-24T15:23:35;18.17;;;10.50;;
62696;SDS011;48761;42.680;23.312;2023-08-24T15:26:03;17.15;;;11.50;;
62696;SDS011;48761;42.680;23.312;2023-08-24T15:28:34;17.25;;;10.77;;
62696;SDS011;48761;42.680;23.312;2023-08-24T15:31:02;12.98;;;10.13;;